Time;durP1;ratioP1;P1;durP2;ratioP2;P2;SDS_P1;SDS_P2;PMS_P1;PMS_P2;Temp;Humidity;BMP_temperature;BMP_pressure;BME280_temperature;BME280_humidity;BME280_pressure;Samples;Min_cycle;Max_cycle;Signal;HPM_P1;HPM_P2
2022/12/20 00:01:11;;;;;;;4.25;2.20;;;9.50;78.70;;;;;;5072509;28;20032;-77
2022/12/20 00:03:37;;;;;;;4.10;1.95;;;9.50;78.70;;;;;;5071738;28;20029;-77
2022/12/20 00:06:03;;;;;;;5.05;2.17;;;9.50;78.60;;;;;;5071519;28;20025;-77
2022/12/20 00:08:29;;;;;;;4.15;2.17;;;9.50;78.70;;;;;;5071139;28;20033;-77
2022/12/20 00:10:55;;;;;;;4.85;2.42;;;9.50;78.70;;;;;;5072566;28;20027;-78
2022/12/20 00:13:21;;;;;;;4.07;2.15;;;9.50;78.80;;;;;;5071610;28;20028;-77
2022/12/20 00:15:46;;;;;;;4.65;2.30;;;9.50;78.70;;;;;;5072612;28;20020;-76
2022/12/20 00:18:12;;;;;;;4.53;2.10;;;9.50;78.80;;;;;;5072499;28;20472;-79
2022/12/20 00:20:37;;;;;;;4.35;2.05;;;9.50;78.70;;;;;;5071089;28;20022;-79
2022/12/20 00:23:03;;;;;;;4.05;2.10;;;9.50;78.70;;;;;;5071123;28;20020;-77
2022/12/20 00:25:28;;;;;;;3.95;2.20;;;9.50;78.80;;;;;;5072930;28;20030;-79
2022/12/20 00:27:54;;;;;;;4.57;2.38;;;9.50;78.80;;;;;;5071047;28;20020;-78
2022/12/20 00:30:20;;;;;;;3.53;2.00;;;9.50;78.70;;;;;;5072307;28;20032;-78
2022/12/20 00:32:45;;;;;;;4.20;2.15;;;9.50;78.80;;;;;;5072418;28;20404;-77
2022/12/20 00:35:12;;;;;;;3.65;2.00;;;9.50;78.80;;;;;;5072261;28;20100;-77
2022/12/20 00:37:38;;;;;;;3.88;2.17;;;9.50;78.80;;;;;;5072277;28;20040;-77
2022/12/20 00:40:04;;;;;;;4.80;2.33;;;9.50;78.70;;;;;;5071120;28;20028;-77
2022/12/20 00:42:30;;;;;;;5.03;2.30;;;9.50;78.70;;;;;;5072194;28;20028;-78
2022/12/20 00:44:56;;;;;;;3.80;2.13;;;9.50;78.80;;;;;;5071095;28;20074;-77
2022/12/20 00:47:21;;;;;;;4.07;1.98;;;9.50;78.90;;;;;;5071122;28;20037;-78
2022/12/20 00:49:47;;;;;;;5.13;2.30;;;9.50;79.00;;;;;;5072148;28;20029;-77
2022/12/20 00:52:13;;;;;;;4.28;2.25;;;9.60;78.90;;;;;;5071905;28;20028;-77
2022/12/20 00:54:38;;;;;;;4.80;2.35;;;9.60;78.80;;;;;;5070822;28;20026;-77
2022/12/20 00:57:04;;;;;;;3.80;1.92;;;9.60;78.60;;;;;;5074013;28;20017;-77
2022/12/20 00:59:29;;;;;;;3.95;2.17;;;9.60;78.30;;;;;;5075024;28;20025;-75
2022/12/20 01:01:55;;;;;;;3.63;1.95;;;9.60;78.40;;;;;;5076069;28;20025;-78
2022/12/20 01:04:20;;;;;;;4.82;2.10;;;9.60;78.10;;;;;;5076266;28;20503;-76
2022/12/20 01:06:46;;;;;;;4.68;2.38;;;9.70;78.10;;;;;;5076357;28;20029;-78
2022/12/20 01:09:12;;;;;;;3.85;2.10;;;9.70;77.90;;;;;;5075075;28;20091;-77
2022/12/20 01:11:38;;;;;;;4.10;2.13;;;9.70;78.10;;;;;;5076651;28;20017;-78
2022/12/20 01:14:13;;;;;;;4.00;2.20;;;9.70;77.90;;;;;;5075360;28;20071;-78
2022/12/20 01:16:41;;;;;;;3.58;1.80;;;9.70;78.00;;;;;;5074850;28;20365;-77
2022/12/20 01:19:09;;;;;;;4.45;2.25;;;9.70;77.80;;;;;;5075847;28;20158;-78
2022/12/20 01:21:37;;;;;;;3.83;2.08;;;9.70;78.00;;;;;;5074489;28;20029;-79
2022/12/20 01:24:03;;;;;;;4.55;2.22;;;9.60;78.00;;;;;;5074794;28;20021;-77
2022/12/20 01:26:29;;;;;;;3.78;2.00;;;9.60;78.10;;;;;;5074568;28;20024;-79
2022/12/20 01:28:57;;;;;;;3.47;1.80;;;9.60;78.20;;;;;;5074424;28;20048;-78
2022/12/20 01:31:27;;;;;;;3.58;2.08;;;9.60;78.40;;;;;;5074316;28;20020;-79
2022/12/20 01:33:52;;;;;;;3.05;1.70;;;9.60;78.50;;;;;;5074405;28;20020;-77
2022/12/20 01:36:24;;;;;;;3.83;1.90;;;9.50;78.60;;;;;;5074366;28;20070;-77
2022/12/20 01:38:50;;;;;;;3.30;1.85;;;9.50;78.70;;;;;;5074424;28;20035;-77
2022/12/20 01:41:20;;;;;;;2.88;1.77;;;9.50;78.80;;;;;;5074266;28;20599;-77
2022/12/20 01:43:54;;;;;;;3.25;1.77;;;9.50;78.90;;;;;;5075740;28;20031;-75
2022/12/20 01:46:23;;;;;;;4.70;1.98;;;9.50;79.00;;;;;;5074202;28;20025;-77
2022/12/20 01:49:07;;;;;;;3.90;2.03;;;9.50;79.00;;;;;;5075373;28;20025;-77
2022/12/20 01:51:36;;;;;;;3.35;1.70;;;9.50;79.10;;;;;;5074000;28;20020;-77
2022/12/20 01:54:15;;;;;;;3.72;1.90;;;9.50;79.10;;;;;;5074033;28;20531;-77
2022/12/20 01:56:46;;;;;;;3.53;1.83;;;9.50;79.10;;;;;;5074035;28;20131;-78
2022/12/20 01:59:12;;;;;;;3.60;1.90;;;9.50;79.20;;;;;;5073981;28;20051;-77
2022/12/20 02:01:39;;;;;;;3.53;1.88;;;9.50;79.20;;;;;;5074061;28;20564;-77
2022/12/20 02:04:05;;;;;;;3.67;1.90;;;9.50;79.30;;;;;;5073848;28;20476;-78
2022/12/20 02:06:30;;;;;;;3.00;1.70;;;9.50;79.30;;;;;;5075016;28;20051;-77
2022/12/20 02:08:59;;;;;;;3.70;2.10;;;9.50;79.20;;;;;;5072587;28;20066;-77
2022/12/20 02:12:05;;;;;;;3.95;1.77;;;9.40;79.30;;;;;;5074679;28;20028;-77
2022/12/20 02:14:51;;;;;;;3.30;1.90;;;9.50;79.30;;;;;;5074119;28;20685;-78
2022/12/20 02:17:35;;;;;;;4.32;2.05;;;9.50;79.40;;;;;;5074997;28;20040;-79
2022/12/20 02:20:25;;;;;;;3.65;1.90;;;9.50;79.40;;;;;;5073640;28;20035;-77
2022/12/20 02:23:22;;;;;;;3.78;1.90;;;9.50;79.50;;;;;;5053845;28;20143;-77
2022/12/20 02:26:09;;;;;;;4.20;1.85;;;9.50;79.40;;;;;;5053585;28;20500;-76
2022/12/20 02:28:44;;;;;;;3.47;1.88;;;9.50;79.50;;;;;;5054535;28;20083;-77
2022/12/20 02:31:16;;;;;;;3.47;1.80;;;9.50;80.00;;;;;;5053069;28;20072;-77
2022/12/20 02:33:45;;;;;;;4.25;1.92;;;9.50;79.50;;;;;;5053338;28;20028;-77
2022/12/20 02:36:10;;;;;;;4.40;1.98;;;9.50;79.50;;;;;;5054550;28;20428;-78
2022/12/20 02:38:37;;;;;;;3.17;1.83;;;9.50;79.60;;;;;;5054328;28;20033;-79
2022/12/20 02:41:29;;;;;;;3.72;1.90;;;9.50;79.60;;;;;;5054345;28;20100;-78
2022/12/20 02:46:52;;;;;;;2.22;1.40;;;9.50;79.70;;;;;;5054379;28;20192;-77
2022/12/20 02:49:20;;;;;;;2.83;1.50;;;9.50;79.60;;;;;;5052927;28;20029;-76
2022/12/20 02:51:48;;;;;;;3.45;1.80;;;9.50;79.60;;;;;;5053920;28;20075;-79
2022/12/20 02:54:15;;;;;;;2.95;1.80;;;9.50;79.70;;;;;;5054340;28;20507;-77
2022/12/20 02:57:04;;;;;;;3.95;1.90;;;9.40;79.60;;;;;;5052806;28;20111;-77
2022/12/20 02:59:36;;;;;;;3.45;1.80;;;9.50;79.60;;;;;;5053203;28;20456;-77
2022/12/20 03:02:02;;;;;;;2.95;1.75;;;9.50;79.60;;;;;;5052599;28;20120;-77
2022/12/20 03:04:31;;;;;;;3.33;1.88;;;9.50;79.70;;;;;;5053955;28;20457;-77
2022/12/20 03:07:02;;;;;;;3.53;1.85;;;9.50;79.70;;;;;;5054087;28;20021;-77
2022/12/20 03:09:31;;;;;;;3.38;1.90;;;9.50;79.60;;;;;;5052806;28;20063;-77
2022/12/20 03:11:57;;;;;;;3.03;1.70;;;9.50;79.70;;;;;;5052407;28;20025;-77
2022/12/20 03:14:23;;;;;;;2.95;1.60;;;9.50;79.60;;;;;;5062314;28;20024;-78
2022/12/20 03:16:49;;;;;;;3.08;1.77;;;9.50;79.70;;;;;;5072305;28;20027;-79
2022/12/20 03:19:15;;;;;;;3.25;1.70;;;9.50;79.70;;;;;;5072208;28;20161;-77
2022/12/20 03:21:41;;;;;;;3.25;1.60;;;9.50;79.70;;;;;;5072207;28;20074;-77
2022/12/20 03:24:06;;;;;;;3.33;1.65;;;9.50;79.60;;;;;;5072334;28;20115;-77
2022/12/20 03:26:32;;;;;;;4.13;1.85;;;9.50;79.70;;;;;;5072367;28;20488;-79
2022/12/20 03:28:57;;;;;;;3.17;1.65;;;9.50;79.70;;;;;;5073464;28;20065;-78
2022/12/20 03:31:23;;;;;;;3.42;1.80;;;9.50;79.70;;;;;;5071790;28;20108;-78
2022/12/20 03:33:49;;;;;;;2.65;1.50;;;9.50;79.90;;;;;;5072280;28;20020;-78
2022/12/20 03:36:14;;;;;;;2.97;1.67;;;9.50;79.60;;;;;;5073301;28;20017;-77
2022/12/20 03:38:40;;;;;;;3.20;1.85;;;9.50;79.60;;;;;;5071908;28;20535;-78
2022/12/20 03:41:05;;;;;;;3.20;1.60;;;9.50;79.60;;;;;;5073017;28;20041;-78
2022/12/20 03:43:31;;;;;;;3.08;1.60;;;9.50;79.60;;;;;;5073073;28;20140;-77
2022/12/20 03:45:58;;;;;;;2.90;1.60;;;9.50;79.70;;;;;;5071995;28;20430;-77
2022/12/20 03:48:23;;;;;;;3.38;1.80;;;9.50;79.60;;;;;;5073018;28;20025;-77
2022/12/20 03:50:49;;;;;;;2.95;1.60;;;9.50;79.60;;;;;;5071652;28;20016;-79
2022/12/20 03:53:15;;;;;;;2.67;1.50;;;9.50;79.60;;;;;;5071746;28;20035;-77
2022/12/20 03:55:40;;;;;;;3.47;1.75;;;9.50;79.60;;;;;;5071842;28;20024;-77
2022/12/20 03:58:06;;;;;;;2.88;1.50;;;9.50;79.70;;;;;;5072896;28;20539;-77
2022/12/20 04:00:31;;;;;;;3.33;1.80;;;9.50;79.70;;;;;;5071526;28;20024;-77
2022/12/20 04:02:57;;;;;;;2.90;1.40;;;9.50;79.60;;;;;;5072591;28;20146;-79
2022/12/20 04:05:22;;;;;;;2.90;1.45;;;9.50;79.60;;;;;;5072612;28;20032;-78
2022/12/20 04:07:48;;;;;;;2.95;1.60;;;9.50;79.60;;;;;;5071600;28;20024;-78
2022/12/20 04:10:14;;;;;;;2.72;1.52;;;9.50;79.60;;;;;;5071327;28;20024;-77
2022/12/20 04:12:39;;;;;;;3.13;1.60;;;9.50;79.60;;;;;;5072538;28;20028;-78
2022/12/20 04:15:05;;;;;;;3.40;1.73;;;9.50;79.60;;;;;;5071340;28;20032;-77
2022/12/20 04:17:31;;;;;;;3.13;1.50;;;9.50;79.60;;;;;;5072619;28;20021;-77
2022/12/20 04:19:56;;;;;;;2.90;1.70;;;9.50;79.60;;;;;;5072526;28;20028;-77
2022/12/20 04:22:22;;;;;;;2.42;1.42;;;9.50;79.70;;;;;;5071075;28;20055;-78
2022/12/20 04:24:47;;;;;;;2.97;1.58;;;9.50;79.60;;;;;;5071264;28;20412;-76
2022/12/20 04:27:13;;;;;;;2.92;1.67;;;9.50;79.60;;;;;;5071284;28;20073;-77
2022/12/20 04:29:38;;;;;;;2.92;1.50;;;9.50;79.60;;;;;;5071172;28;20028;-78
2022/12/20 04:32:04;;;;;;;2.50;1.45;;;9.50;79.70;;;;;;5071608;28;20017;-77
2022/12/20 04:34:30;;;;;;;3.00;1.58;;;9.50;79.60;;;;;;5072495;28;20377;-78
2022/12/20 04:36:55;;;;;;;3.78;1.88;;;9.50;79.60;;;;;;5070959;28;20423;-77
2022/12/20 04:39:20;;;;;;;4.10;1.80;;;9.50;79.60;;;;;;5071103;28;20025;-78
2022/12/20 04:41:46;;;;;;;2.85;1.30;;;9.50;79.60;;;;;;5072144;28;20032;-77
2022/12/20 04:44:11;;;;;;;3.08;1.60;;;9.50;79.60;;;;;;5071060;28;20017;-77
2022/12/20 04:46:37;;;;;;;2.60;1.33;;;9.50;79.60;;;;;;5070977;28;20025;-77
2022/12/20 04:49:03;;;;;;;2.85;1.52;;;9.50;79.60;;;;;;5071033;28;20609;-76
2022/12/20 04:51:29;;;;;;;2.85;1.48;;;9.50;79.70;;;;;;5070735;28;20032;-77
2022/12/20 04:53:55;;;;;;;2.40;1.40;;;9.50;79.60;;;;;;5070971;28;20016;-77
2022/12/20 04:56:29;;;;;;;3.65;1.60;;;9.50;79.60;;;;;;5070916;28;20507;-78
2022/12/20 04:58:56;;;;;;;2.90;1.58;;;9.50;79.50;;;;;;5072389;28;20032;-78
2022/12/20 05:01:22;;;;;;;3.00;1.48;;;9.50;79.60;;;;;;5071885;28;20025;-77
2022/12/20 05:03:48;;;;;;;2.85;1.58;;;9.50;79.60;;;;;;5072104;28;20118;-77
2022/12/20 05:06:14;;;;;;;2.95;1.50;;;9.50;79.60;;;;;;5070862;28;20085;-78
2022/12/20 05:08:41;;;;;;;2.55;1.40;;;9.50;79.60;;;;;;5070893;28;20052;-77
2022/12/20 05:11:07;;;;;;;3.00;1.60;;;9.50;79.60;;;;;;5070582;28;20021;-77
2022/12/20 05:13:33;;;;;;;2.75;1.50;;;9.50;79.50;;;;;;5068604;28;20499;-78
2022/12/20 05:15:59;;;;;;;2.45;1.40;;;9.50;79.50;;;;;;5058743;28;20021;-77
2022/12/20 05:18:25;;;;;;;2.42;1.42;;;9.50;79.60;;;;;;5051025;28;20552;-77
2022/12/20 05:26:16;;;;;;;3.15;1.60;;;9.50;79.50;;;;;;5050570;28;20040;-77
2022/12/20 05:26:23;;;;;;;2.60;1.50;;;9.50;79.70;;;;;;5051885;28;20526;-77
2022/12/20 05:28:50;;;;;;;3.10;1.40;;;9.50;79.90;;;;;;5070114;28;20029;-77
2022/12/20 05:31:16;;;;;;;2.70;1.58;;;9.50;79.80;;;;;;5070389;28;20028;-77
2022/12/20 05:33:41;;;;;;;3.00;1.50;;;9.60;79.70;;;;;;5071969;28;20021;-75
2022/12/20 05:36:08;;;;;;;3.05;1.70;;;9.60;79.50;;;;;;5072111;28;20361;-77
2022/12/20 05:38:33;;;;;;;2.25;1.30;;;9.60;79.30;;;;;;5070405;28;20111;-77
2022/12/20 05:40:59;;;;;;;3.35;1.50;;;9.60;79.80;;;;;;5071471;28;20052;-77
2022/12/20 05:43:24;;;;;;;2.80;1.38;;;9.60;79.20;;;;;;5072689;28;20063;-78
2022/12/20 05:45:51;;;;;;;2.78;1.50;;;9.70;79.30;;;;;;5075449;28;20020;-78
2022/12/20 05:48:19;;;;;;;2.40;1.38;;;9.70;79.10;;;;;;5074473;28;20370;-78
2022/12/20 05:50:45;;;;;;;2.38;1.45;;;9.70;79.10;;;;;;5074440;28;20029;-77
2022/12/20 05:53:15;;;;;;;2.22;1.40;;;9.70;79.00;;;;;;5074086;28;20103;-76
2022/12/20 05:55:48;;;;;;;2.88;1.45;;;9.70;78.90;;;;;;5075355;28;20472;-76
2022/12/20 05:58:14;;;;;;;3.00;1.70;;;9.70;78.90;;;;;;5075235;28;20029;-76
2022/12/20 06:00:41;;;;;;;3.30;1.55;;;9.60;78.90;;;;;;5074697;28;20025;-79
2022/12/20 06:03:08;;;;;;;2.28;1.38;;;9.70;79.00;;;;;;5075920;28;20024;-80
2022/12/20 06:05:37;;;;;;;1.75;1.13;;;9.60;79.00;;;;;;5072432;28;20025;-76
2022/12/20 06:08:04;;;;;;;2.90;1.50;;;9.60;79.70;;;;;;5067948;28;20034;-75
2022/12/20 06:10:30;;;;;;;2.45;1.40;;;9.60;79.30;;;;;;5058405;28;20121;-77
2022/12/20 06:12:56;;;;;;;3.40;1.48;;;9.60;79.30;;;;;;5053231;28;20028;-78
2022/12/20 06:15:21;;;;;;;3.00;1.60;;;9.50;79.40;;;;;;5054980;28;20044;-74
2022/12/20 06:17:47;;;;;;;2.70;1.50;;;9.50;79.50;;;;;;5054784;28;20021;-74
2022/12/20 06:20:12;;;;;;;2.97;1.50;;;9.50;79.80;;;;;;5054991;28;20021;-75
2022/12/20 06:22:38;;;;;;;2.20;1.40;;;9.50;79.80;;;;;;5054427;28;20028;-76
2022/12/20 06:25:05;;;;;;;2.33;1.50;;;9.50;79.80;;;;;;5054641;28;20029;-77
2022/12/20 06:27:30;;;;;;;3.65;1.63;;;9.50;79.80;;;;;;5055859;28;20029;-76
2022/12/20 06:29:56;;;;;;;2.75;1.45;;;9.50;79.90;;;;;;5064919;28;20024;-78
2022/12/20 06:32:21;;;;;;;2.20;1.50;;;9.50;79.90;;;;;;5054022;28;20025;-77
2022/12/20 06:34:47;;;;;;;2.88;1.55;;;9.50;80.00;;;;;;5054399;28;20100;-78
2022/12/20 06:37:12;;;;;;;2.65;1.42;;;9.50;80.00;;;;;;5060916;28;20063;-78
2022/12/20 06:39:38;;;;;;;2.83;1.45;;;9.50;80.00;;;;;;5071661;28;20154;-79
2022/12/20 06:42:04;;;;;;;3.47;1.67;;;9.50;80.10;;;;;;5072817;28;20024;-77
2022/12/20 06:44:29;;;;;;;2.60;1.40;;;9.50;80.00;;;;;;5053850;28;20029;-79
2022/12/20 06:46:55;;;;;;;2.95;1.60;;;9.50;80.00;;;;;;5055465;28;20044;-76
2022/12/20 06:49:21;;;;;;;2.63;1.58;;;9.50;80.10;;;;;;5064835;28;20025;-78
2022/12/20 06:51:47;;;;;;;3.53;1.67;;;9.50;80.20;;;;;;5072472;28;20107;-77
2022/12/20 06:54:13;;;;;;;2.22;1.45;;;9.50;80.10;;;;;;5056520;28;20021;-76
2022/12/20 06:56:38;;;;;;;2.97;1.52;;;9.50;80.20;;;;;;5053336;28;20079;-76
2022/12/20 06:59:04;;;;;;;3.22;1.70;;;9.50;80.30;;;;;;5068202;28;20461;-77
2022/12/20 07:01:30;;;;;;;2.88;1.58;;;9.50;80.30;;;;;;5073566;28;20115;-75
2022/12/20 07:03:55;;;;;;;2.30;1.33;;;9.50;80.40;;;;;;5072609;28;20115;-76
2022/12/20 07:06:21;;;;;;;2.53;1.48;;;9.50;80.40;;;;;;5073749;28;20064;-75
2022/12/20 07:08:46;;;;;;;3.55;1.50;;;9.50;80.40;;;;;;5068696;28;20025;-76
2022/12/20 07:11:12;;;;;;;2.38;1.30;;;9.50;80.50;;;;;;5053650;28;20071;-77
2022/12/20 07:13:37;;;;;;;3.28;1.40;;;9.50;80.40;;;;;;5052758;28;20017;-76
2022/12/20 07:16:03;;;;;;;3.35;1.45;;;9.50;80.30;;;;;;5053829;28;20025;-78
2022/12/20 07:18:30;;;;;;;2.72;1.58;;;9.50;80.40;;;;;;5053863;28;20117;-77
2022/12/20 07:21:03;;;;;;;2.42;1.45;;;9.50;80.60;;;;;;5051955;28;20477;-78
2022/12/20 07:23:29;;;;;;;2.92;1.60;;;9.50;80.50;;;;;;5052284;28;20119;-77
2022/12/20 07:25:55;;;;;;;2.55;1.38;;;9.50;80.30;;;;;;5062691;28;20019;-77
2022/12/20 07:28:22;;;;;;;2.85;1.70;;;9.40;80.10;;;;;;5072158;28;20028;-77
2022/12/20 07:30:48;;;;;;;2.58;1.40;;;9.40;80.30;;;;;;5071969;28;20024;-78
2022/12/20 07:33:14;;;;;;;3.53;1.75;;;9.50;80.50;;;;;;5071915;28;20043;-76
2022/12/20 07:35:39;;;;;;;3.03;1.50;;;9.50;80.40;;;;;;5069005;28;20773;-76
2022/12/20 07:38:05;;;;;;;3.00;1.40;;;9.50;80.40;;;;;;5056511;28;20511;-75
2022/12/20 07:40:30;;;;;;;2.55;1.48;;;9.50;80.30;;;;;;5073865;28;20063;-77
2022/12/20 07:42:56;;;;;;;2.45;1.40;;;9.50;80.30;;;;;;5073055;28;20035;-77
2022/12/20 07:45:21;;;;;;;2.70;1.52;;;9.50;80.40;;;;;;5056830;28;20493;-75
2022/12/20 07:47:47;;;;;;;3.03;1.65;;;9.50;80.40;;;;;;5053216;28;20028;-74
2022/12/20 07:50:13;;;;;;;3.42;1.80;;;9.50;80.40;;;;;;5052693;28;20046;-75
2022/12/20 07:52:42;;;;;;;2.53;1.40;;;9.50;80.50;;;;;;5052230;28;20021;-75
2022/12/20 07:55:10;;;;;;;2.58;1.50;;;9.40;80.50;;;;;;5052500;28;20020;-77
2022/12/20 07:57:43;;;;;;;2.55;1.45;;;9.50;80.40;;;;;;5052698;28;20025;-76
2022/12/20 08:00:09;;;;;;;3.25;1.55;;;9.50;80.60;;;;;;5052452;28;20600;-79
2022/12/20 08:02:43;;;;;;;2.80;1.48;;;9.50;80.60;;;;;;5052243;28;20150;-75
2022/12/20 08:05:09;;;;;;;3.28;1.73;;;9.50;80.70;;;;;;5051517;28;20111;-76
2022/12/20 08:07:37;;;;;;;3.30;1.55;;;9.50;80.60;;;;;;5051736;28;20103;-76
2022/12/20 08:10:05;;;;;;;2.40;1.50;;;9.40;80.50;;;;;;5050988;28;20086;-77
2022/12/20 08:12:31;;;;;;;2.58;1.30;;;9.50;80.60;;;;;;5052180;28;20029;-76
2022/12/20 08:14:58;;;;;;;2.83;1.40;;;9.50;80.60;;;;;;5052622;28;20024;-76
2022/12/20 08:17:24;;;;;;;3.20;1.65;;;9.50;80.50;;;;;;5051217;28;20556;-76
2022/12/20 08:19:50;;;;;;;3.03;1.50;;;9.50;80.60;;;;;;5051363;28;20057;-76
2022/12/20 08:22:18;;;;;;;3.05;1.70;;;9.50;80.60;;;;;;5052196;28;20017;-76
2022/12/20 08:24:43;;;;;;;3.08;1.52;;;9.50;80.60;;;;;;5052735;28;20025;-76
2022/12/20 08:27:09;;;;;;;2.80;1.52;;;9.50;80.70;;;;;;5051128;28;20481;-77
2022/12/20 08:29:34;;;;;;;3.05;1.60;;;9.50;80.70;;;;;;5052440;28;20063;-76
2022/12/20 08:32:00;;;;;;;2.70;1.50;;;9.50;80.70;;;;;;5050910;28;20049;-76
2022/12/20 08:34:26;;;;;;;3.17;1.40;;;9.50;80.70;;;;;;5052554;28;20075;-77
2022/12/20 08:36:51;;;;;;;3.90;1.80;;;9.50;80.70;;;;;;5050871;28;20033;-75
2022/12/20 08:39:17;;;;;;;3.05;1.50;;;9.50;80.60;;;;;;5052344;28;20028;-77
2022/12/20 08:41:42;;;;;;;3.40;1.73;;;9.50;80.60;;;;;;5052287;28;20029;-77
2022/12/20 08:44:09;;;;;;;3.38;1.60;;;9.50;80.40;;;;;;5052412;28;20025;-77
2022/12/20 08:46:35;;;;;;;3.10;1.60;;;9.50;80.60;;;;;;5050954;28;20111;-77
2022/12/20 08:49:02;;;;;;;3.13;1.70;;;9.50;80.60;;;;;;5050963;28;20524;-76
2022/12/20 08:51:28;;;;;;;3.38;1.60;;;9.50;80.60;;;;;;5050734;28;20032;-77
2022/12/20 08:53:53;;;;;;;2.50;1.63;;;9.50;80.40;;;;;;5059565;28;20021;-77
2022/12/20 08:56:19;;;;;;;3.92;1.50;;;9.50;80.50;;;;;;5070191;28;20044;-76
2022/12/20 08:58:45;;;;;;;2.90;1.60;;;9.50;80.40;;;;;;5070315;28;20036;-77
2022/12/20 09:01:13;;;;;;;3.38;1.60;;;9.50;80.40;;;;;;5072524;28;20021;-77
2022/12/20 09:03:39;;;;;;;3.20;1.50;;;9.50;80.40;;;;;;5070742;28;20476;-77
2022/12/20 09:06:11;;;;;;;4.13;2.08;;;9.50;80.60;;;;;;5070705;28;20029;-76
2022/12/20 09:08:38;;;;;;;4.15;1.95;;;9.50;80.60;;;;;;5070217;28;20052;-75
2022/12/20 09:11:13;;;;;;;4.65;1.77;;;9.50;80.40;;;;;;5069932;28;20500;-79
2022/12/20 09:13:40;;;;;;;3.72;1.80;;;9.50;80.40;;;;;;5061017;28;20028;-76
2022/12/20 09:16:07;;;;;;;3.95;1.92;;;9.50;80.40;;;;;;5050381;28;20071;-84
2022/12/20 09:18:33;;;;;;;3.55;1.80;;;9.50;80.90;;;;;;5055692;28;20033;-84
2022/12/20 09:21:04;;;;;;;4.53;2.08;;;9.50;80.30;;;;;;5058085;28;20041;-83
2022/12/20 09:23:30;;;;;;;4.00;1.90;;;9.60;80.30;;;;;;5054439;28;20055;-75
2022/12/20 09:26:04;;;;;;;4.47;1.80;;;9.50;80.20;;;;;;5055134;28;20473;-76
2022/12/20 09:28:31;;;;;;;2.97;1.58;;;9.50;80.20;;;;;;5055049;28;20020;-75
2022/12/20 09:31:01;;;;;;;3.65;1.70;;;9.60;80.40;;;;;;5054988;28;20044;-76
2022/12/20 09:33:28;;;;;;;3.53;1.80;;;9.60;80.40;;;;;;5054451;28;20017;-75
2022/12/20 09:35:53;;;;;;;5.47;1.90;;;9.60;80.40;;;;;;5054904;28;20022;-75
2022/12/20 09:38:19;;;;;;;3.40;1.90;;;9.60;80.40;;;;;;5055108;28;20040;-76
2022/12/20 09:40:47;;;;;;;4.05;1.80;;;9.60;80.40;;;;;;5054743;28;20481;-76
2022/12/20 09:43:14;;;;;;;3.88;1.85;;;9.60;80.30;;;;;;5054638;28;20027;-75
2022/12/20 09:45:40;;;;;;;3.38;1.75;;;9.60;80.40;;;;;;5053491;28;20024;-76
2022/12/20 09:48:15;;;;;;;3.45;1.88;;;9.60;80.30;;;;;;5054646;28;20178;-75
2022/12/20 09:51:03;;;;;;;5.40;1.92;;;9.60;80.20;;;;;;5053220;28;20026;-75
2022/12/20 09:53:49;;;;;;;4.10;1.70;;;9.60;80.20;;;;;;5053428;28;20017;-76
2022/12/20 09:56:23;;;;;;;3.20;1.75;;;9.70;80.20;;;;;;5053456;28;20127;-74
2022/12/20 09:59:04;;;;;;;3.17;1.77;;;9.70;80.20;;;;;;5053311;28;20052;-76
2022/12/20 10:01:32;;;;;;;3.72;1.90;;;9.80;80.00;;;;;;5053016;28;20031;-76
2022/12/20 10:04:02;;;;;;;4.60;2.22;;;9.80;79.70;;;;;;5053205;28;20033;-75
2022/12/20 10:06:45;;;;;;;4.70;1.80;;;9.80;79.80;;;;;;5053218;28;20025;-76
2022/12/20 10:09:29;;;;;;;4.40;2.10;;;9.80;79.90;;;;;;5054304;28;20148;-75
2022/12/20 10:12:19;;;;;;;3.35;1.92;;;9.80;80.00;;;;;;5054005;28;20025;-75
2022/12/20 10:15:06;;;;;;;3.05;1.70;;;9.80;80.20;;;;;;5053115;28;20404;-75
2022/12/20 10:17:36;;;;;;;3.50;1.80;;;9.80;80.00;;;;;;5053121;28;20095;-75
2022/12/20 10:20:20;;;;;;;4.40;2.10;;;9.90;79.90;;;;;;5052829;28;20029;-76
2022/12/20 10:23:08;;;;;;;3.05;1.70;;;9.90;79.80;;;;;;5053781;28;20025;-75
2022/12/20 10:25:34;;;;;;;4.20;1.90;;;9.90;79.80;;;;;;5052869;28;20044;-76
2022/12/20 10:28:04;;;;;;;3.40;1.85;;;9.80;79.90;;;;;;5052851;28;20036;-76
2022/12/20 10:30:32;;;;;;;4.15;2.03;;;9.90;79.80;;;;;;5053010;28;20024;-76
2022/12/20 10:32:58;;;;;;;3.00;1.70;;;9.90;79.70;;;;;;5053473;28;20098;-74
2022/12/20 10:35:28;;;;;;;3.70;1.90;;;9.80;79.70;;;;;;5053923;28;20497;-75
2022/12/20 10:38:06;;;;;;;4.85;1.98;;;9.80;79.70;;;;;;5053637;28;20045;-75
2022/12/20 10:40:44;;;;;;;3.78;1.90;;;9.80;79.70;;;;;;5052655;28;20074;-76
2022/12/20 10:43:22;;;;;;;25.02;3.10;;;9.80;79.90;;;;;;5053623;28;20029;-77
2022/12/20 10:46:07;;;;;;;9.32;2.40;;;9.80;80.20;;;;;;5053639;28;20036;-86
2022/12/20 10:48:33;;;;;;;8.90;2.17;;;9.90;80.40;;;;;;5053011;28;20039;-77
2022/12/20 10:51:11;;;;;;;8.23;2.20;;;9.90;80.50;;;;;;5051912;28;20480;-77
2022/12/20 10:53:48;;;;;;;8.35;2.22;;;9.90;80.40;;;;;;5053635;28;20021;-77
2022/12/20 10:56:21;;;;;;;12.23;2.92;;;9.90;80.20;;;;;;5055017;28;20104;-77
2022/12/20 10:59:16;;;;;;;10.90;2.17;;;9.90;80.30;;;;;;5052490;28;20021;-76
2022/12/20 11:01:46;;;;;;;7.75;2.35;;;9.90;80.30;;;;;;5030891;28;20116;-76
2022/12/20 11:04:34;;;;;;;7.78;2.20;;;9.90;80.10;;;;;;5054824;28;20512;-78
2022/12/20 11:07:20;;;;;;;7.22;2.15;;;9.90;80.20;;;;;;5055472;28;20545;-80
2022/12/20 11:09:53;;;;;;;7.63;2.28;;;9.90;80.00;;;;;;5053452;28;20025;-77
2022/12/20 11:12:18;;;;;;;7.75;2.10;;;9.90;80.20;;;;;;5053199;28;20480;-77
2022/12/20 11:14:45;;;;;;;8.52;2.17;;;9.90;80.30;;;;;;5053810;28;20035;-76
2022/12/20 11:17:28;;;;;;;5.85;2.00;;;9.90;80.20;;;;;;5054861;28;20112;-81
2022/12/20 11:20:10;;;;;;;6.25;1.80;;;9.90;80.20;;;;;;5059043;28;20481;-81
2022/12/20 11:23:06;;;;;;;5.57;1.50;;;9.90;80.10;;;;;;5057500;28;20041;-80
2022/12/20 11:26:07;;;;;;;6.38;1.90;;;9.90;80.10;;;;;;5056602;28;20037;-79
2022/12/20 11:28:50;;;;;;;4.75;2.05;;;9.90;80.10;;;;;;5058114;28;20028;-81
2022/12/20 11:31:35;;;;;;;7.97;1.85;;;9.80;80.10;;;;;;5054594;28;20048;-81
2022/12/20 11:34:18;;;;;;;3.50;1.83;;;9.90;80.10;;;;;;5054684;28;20021;-77
2022/12/20 11:37:02;;;;;;;5.57;2.00;;;9.90;80.20;;;;;;5052968;28;20079;-76
2022/12/20 11:39:45;;;;;;;5.93;1.67;;;9.90;80.10;;;;;;5052447;28;20484;-78
2022/12/20 11:42:53;;;;;;;5.45;1.90;;;9.90;80.20;;;;;;5054112;28;20096;-78
2022/12/20 11:45:22;;;;;;;4.75;2.00;;;9.90;80.20;;;;;;5056407;28;20032;-77
2022/12/20 11:48:19;;;;;;;7.10;2.00;;;9.80;80.20;;;;;;5065961;28;20025;-77
2022/12/20 11:51:29;;;;;;;6.65;1.85;;;9.90;80.20;;;;;;5071404;28;20021;-77
2022/12/20 11:54:12;;;;;;;5.43;1.80;;;9.90;80.20;;;;;;5046192;28;20497;-81
2022/12/20 11:56:42;;;;;;;3.78;1.70;;;9.90;80.20;;;;;;5072776;28;20028;-76
2022/12/20 11:59:39;;;;;;;3.35;1.60;;;9.90;80.10;;;;;;5056647;28;20033;-77
2022/12/20 12:02:13;;;;;;;3.70;1.67;;;9.90;80.20;;;;;;5068003;28;20028;-77
2022/12/20 12:04:55;;;;;;;3.90;1.63;;;9.90;80.10;;;;;;5059194;28;20033;-78
2022/12/20 12:07:27;;;;;;;3.97;1.65;;;9.90;80.20;;;;;;5052346;28;20477;-76
2022/12/20 12:10:11;;;;;;;4.93;1.60;;;9.90;80.10;;;;;;5051803;28;20031;-76
2022/12/20 12:12:43;;;;;;;5.05;1.67;;;9.90;80.10;;;;;;5051816;28;20040;-81
2022/12/20 12:15:14;;;;;;;3.80;1.40;;;9.90;80.20;;;;;;5051842;28;20112;-78
2022/12/20 12:18:08;;;;;;;3.80;1.80;;;9.90;80.20;;;;;;5053101;28;20480;-77
2022/12/20 12:21:03;;;;;;;3.75;1.50;;;9.90;80.20;;;;;;5053154;28;20060;-77
2022/12/20 12:24:07;;;;;;;3.97;2.00;;;9.90;80.30;;;;;;5050582;28;20520;-77
2022/12/20 12:26:40;;;;;;;4.22;1.75;;;9.80;80.20;;;;;;5063239;28;20055;-78
2022/12/20 12:29:12;;;;;;;4.03;1.52;;;9.80;80.20;;;;;;5071538;28;20024;-76
2022/12/20 12:31:41;;;;;;;4.72;1.60;;;9.90;80.30;;;;;;5072261;28;20032;-81
2022/12/20 12:34:31;;;;;;;5.18;1.67;;;9.90;80.30;;;;;;5073320;28;20029;-76
2022/12/20 12:37:03;;;;;;;3.63;1.40;;;9.90;80.20;;;;;;5055386;28;20033;-75
2022/12/20 12:39:47;;;;;;;2.67;1.40;;;9.80;80.30;;;;;;5052722;28;20029;-77
2022/12/20 12:42:46;;;;;;;3.25;1.70;;;9.80;80.20;;;;;;5051669;28;20096;-77
2022/12/20 12:45:27;;;;;;;4.28;1.77;;;9.90;80.30;;;;;;5051425;28;20037;-76
2022/12/20 12:48:05;;;;;;;5.93;1.50;;;9.90;80.30;;;;;;5050633;28;20558;-77
2022/12/20 12:50:44;;;;;;;3.60;1.40;;;9.80;80.20;;;;;;5050329;28;20029;-77
2022/12/20 12:53:20;;;;;;;3.00;1.50;;;9.90;80.30;;;;;;5049949;28;20021;-77
2022/12/20 12:55:49;;;;;;;3.10;1.48;;;9.90;80.20;;;;;;5052646;28;20025;-77
2022/12/20 12:58:24;;;;;;;2.88;1.40;;;9.80;80.20;;;;;;5051903;28;20021;-80
2022/12/20 13:00:55;;;;;;;3.80;1.58;;;9.90;80.20;;;;;;5050196;28;20035;-76
2022/12/20 13:03:39;;;;;;;;;;;9.80;80.10;;;;;;5053494;28;20025;-77
2022/12/20 13:06:29;;;;;;;2.60;1.38;;;9.80;80.10;;;;;;5052755;28;19911;-79
2022/12/20 13:08:57;;;;;;;3.22;1.30;;;9.90;80.10;;;;;;5053205;28;20028;-78
2022/12/20 13:11:29;;;;;;;4.20;1.33;;;9.80;80.10;;;;;;5051571;28;20025;-77
2022/12/20 13:14:23;;;;;;;3.78;1.73;;;9.80;80.10;;;;;;5051333;28;20029;-77
2022/12/20 13:17:13;;;;;;;2.88;1.45;;;9.90;80.20;;;;;;5051802;28;20431;-76
2022/12/20 13:19:47;;;;;;;3.77;1.40;;;9.80;80.30;;;;;;5013829;28;20044;-77
2022/12/20 13:22:16;;;;;;;4.38;1.50;;;9.80;80.70;;;;;;5049885;28;20550;-77